Time;durP1;ratioP1;P1;durP2;ratioP2;P2;SDS_P1;SDS_P2;PMS_P1;PMS_P2;Temp;Humidity;BMP_temperature;BMP_pressure;BME280_temperature;BME280_humidity;BME280_pressure;Samples;Min_cycle;Max_cycle;Signal;HPM_P1;HPM_P2
2024/02/10 00:01:45;;;;;;;6.53;3.58;;;;;;;14.76;53.79;96461.19;5003867;28;20136;-77
2024/02/10 00:04:13;;;;;;;6.07;3.58;;;;;;;14.52;54.47;96432.06;4989954;28;20027;-77
2024/02/10 00:06:39;;;;;;;7.55;3.80;;;;;;;14.38;55.69;96451.38;4977258;28;20034;-76
2024/02/10 00:09:06;;;;;;;8.55;3.95;;;;;;;14.33;56.76;96459.06;4993137;28;20111;-77
2024/02/10 00:11:33;;;;;;;6.28;3.95;;;;;;;14.16;56.96;96451.66;5000364;28;20072;-75
2024/02/10 00:13:58;;;;;;;10.27;5.00;;;;;;;13.97;58.47;96465.97;4994931;28;20120;-76
2024/02/10 00:16:26;;;;;;;12.00;4.40;;;;;;;13.75;59.65;96462.75;4980210;28;20037;-76
2024/02/10 00:18:53;;;;;;;7.50;3.95;;;;;;;13.58;60.72;96473.19;4985104;28;20099;-77
2024/02/10 00:21:21;;;;;;;6.78;4.20;;;;;;;13.55;62.04;96473.47;4981070;28;20034;-76
2024/02/10 00:23:47;;;;;;;10.70;5.05;;;;;;;13.46;63.64;96474.31;4980058;28;20034;-77
2024/02/10 00:26:18;;;;;;;7.53;4.20;;;;;;;13.25;63.20;96464.66;4977694;28;20041;-76
2024/02/10 00:28:45;;;;;;;13.35;5.10;;;;;;;13.29;64.92;96479.50;4985968;28;20033;-76
2024/02/10 00:31:12;;;;;;;14.52;6.07;;;;;;;13.26;67.27;96488.66;4985192;28;20029;-76
2024/02/10 00:33:37;;;;;;;13.38;5.70;;;;;;;13.11;67.97;96467.72;4984046;28;20093;-75
2024/02/10 00:36:03;;;;;;;18.63;5.95;;;;;;;13.03;68.62;96482.66;4998451;28;20038;-76
2024/02/10 00:38:30;;;;;;;13.57;6.05;;;;;;;12.95;70.26;96485.16;5006134;28;20438;-76
2024/02/10 00:41:05;;;;;;;11.98;5.57;;;;;;;12.94;69.54;96493.34;4977078;28;20422;-76
2024/02/10 00:43:31;;;;;;;8.35;4.82;;;;;;;13.04;69.67;96467.41;4991262;28;20336;-76
2024/02/10 00:45:59;;;;;;;13.07;5.03;;;;;;;12.83;68.56;96458.53;4995274;28;20041;-76
2024/02/10 00:48:28;;;;;;;9.90;4.40;;;;;;;12.98;65.17;96466.09;4998220;28;20029;-77
2024/02/10 00:51:00;;;;;;;11.50;4.32;;;;;;;13.17;63.36;96477.91;4990767;28;20446;-76
2024/02/10 00:53:26;;;;;;;9.93;4.18;;;;;;;13.21;61.47;96472.13;4982336;28;20470;-78
2024/02/10 00:55:52;;;;;;;7.20;3.25;;;;;;;13.62;56.65;96451.41;4978877;28;20034;-76
2024/02/10 00:58:17;;;;;;;5.43;2.92;;;;;;;13.73;56.08;96452.13;4976131;28;20074;-77
2024/02/10 01:00:45;;;;;;;12.20;3.38;;;;;;;13.87;54.45;96450.88;4999287;28;20034;-75
2024/02/10 01:03:13;;;;;;;8.38;2.78;;;;;;;14.11;53.22;96451.25;4988340;28;20057;-76
2024/02/10 01:05:39;;;;;;;5.78;3.10;;;;;;;14.05;53.19;96436.56;4983957;28;20075;-75
2024/02/10 01:08:06;;;;;;;6.65;3.03;;;;;;;14.11;53.72;96444.06;4979819;28;20027;-76
2024/02/10 01:10:31;;;;;;;7.03;3.35;;;;;;;14.06;53.71;96434.69;4999921;28;20037;-76
2024/02/10 01:13:01;;;;;;;5.68;3.20;;;;;;;13.89;56.79;96432.75;4989332;28;20398;-76
2024/02/10 01:15:30;;;;;;;5.38;3.20;;;;;;;13.69;57.81;96447.19;4987128;28;20061;-77
2024/02/10 01:18:00;;;;;;;6.55;3.28;;;;;;;13.47;59.68;96424.94;4979848;28;20030;-78
2024/02/10 01:20:26;;;;;;;6.38;3.13;;;;;;;13.39;59.12;96446.31;4987624;28;20030;-77
2024/02/10 01:22:51;;;;;;;7.10;3.45;;;;;;;13.36;59.32;96435.84;5001418;28;20124;-77
2024/02/10 01:25:17;;;;;;;8.60;3.67;;;;;;;13.16;58.78;96399.22;5002535;28;20121;-76
2024/02/10 01:27:45;;;;;;;4.40;2.72;;;;;;;13.39;58.57;96422.13;4989240;28;20482;-77
2024/02/10 01:30:11;;;;;;;8.48;3.05;;;;;;;13.39;59.55;96435.56;4988562;28;20516;-77
2024/02/10 01:32:36;;;;;;;8.50;3.47;;;;;;;13.25;60.74;96443.19;4985624;28;20034;-76
2024/02/10 01:35:03;;;;;;;8.70;3.00;;;;;;;13.14;61.59;96413.72;4982168;28;20095;-75
2024/02/10 01:37:29;;;;;;;18.52;3.20;;;;;;;12.95;62.35;96420.72;4987069;28;20052;-76
2024/02/10 01:39:55;;;;;;;9.43;4.15;;;;;;;12.80;64.38;96403.31;4987768;28;20456;-77
2024/02/10 01:42:37;;;;;;;11.68;4.20;;;;;;;12.93;64.11;96413.81;4988110;28;20030;-75
2024/02/10 01:45:07;;;;;;;8.73;4.23;;;;;;;12.71;64.78;96401.44;4984011;28;20022;-75
2024/02/10 01:47:37;;;;;;;8.73;3.92;;;;;;;12.66;64.66;96418.94;4994212;28;20034;-76
2024/02/10 01:50:04;;;;;;;11.45;4.70;;;;;;;12.67;66.31;96420.66;4986543;28;20451;-76
2024/02/10 01:52:30;;;;;;;8.27;3.55;;;;;;;12.60;65.97;96427.53;5000519;28;20034;-77
2024/02/10 01:54:55;;;;;;;12.93;4.55;;;;;;;12.48;67.23;96443.72;4997509;28;20034;-76
2024/02/10 01:57:22;;;;;;;8.07;4.00;;;;;;;12.40;66.21;96424.75;5005912;28;20034;-77
2024/02/10 01:59:47;;;;;;;8.77;3.60;;;;;;;12.47;66.14;96435.81;4981217;28;20030;-77
2024/02/10 02:02:14;;;;;;;5.35;3.05;;;;;;;12.41;65.79;96418.44;4983875;28;20133;-75
2024/02/10 02:04:40;;;;;;;4.82;3.08;;;;;;;12.46;64.92;96423.38;4984407;28;20052;-76
2024/02/10 02:07:09;;;;;;;11.50;4.30;;;;;;;12.44;67.34;96457.53;4986218;28;20030;-76
2024/02/10 02:09:36;;;;;;;8.82;3.72;;;;;;;12.36;67.91;96449.31;4981606;28;20037;-75
2024/02/10 02:12:08;;;;;;;10.30;4.13;;;;;;;12.21;67.87;96435.38;4984151;28;20026;-76
2024/02/10 02:14:38;;;;;;;7.22;3.92;;;;;;;12.19;67.60;96442.72;5008502;28;20030;-76
2024/02/10 02:17:05;;;;;;;7.00;3.63;;;;;;;12.21;68.48;96418.47;5002519;28;20461;-76
2024/02/10 02:19:40;;;;;;;9.90;3.78;;;;;;;12.09;68.84;96436.44;5006091;28;20064;-75
2024/02/10 02:22:09;;;;;;;7.53;3.42;;;;;;;11.94;70.72;96433.25;4993586;28;20033;-75
2024/02/10 02:24:35;;;;;;;7.57;3.80;;;;;;;11.88;71.14;96416.81;5002782;28;20031;-76
2024/02/10 02:27:01;;;;;;;10.15;3.90;;;;;;;11.89;72.12;96419.41;4986304;28;20041;-75
2024/02/10 02:29:27;;;;;;;10.38;3.45;;;;;;;11.71;72.90;96409.38;4981084;28;20030;-76
2024/02/10 02:32:00;;;;;;;5.82;2.80;;;;;;;11.78;71.73;96423.97;4987465;28;20481;-77
2024/02/10 02:34:30;;;;;;;6.68;2.90;;;;;;;11.67;71.80;96407.91;4992830;28;20386;-76
2024/02/10 02:36:56;;;;;;;7.97;3.15;;;;;;;11.67;72.21;96407.91;4982377;28;20021;-76
2024/02/10 02:39:22;;;;;;;7.93;3.00;;;;;;;11.66;74.02;96406.22;4992009;28;20040;-78
2024/02/10 02:41:48;;;;;;;10.75;3.10;;;;;;;11.35;75.95;96398.06;5002506;28;20092;-76
2024/02/10 02:44:16;;;;;;;7.60;3.65;;;;;;;11.27;78.21;96397.88;4984202;28;20080;-78
2024/02/10 02:46:42;;;;;;;6.25;2.83;;;;;;;11.28;79.29;96409.44;4992861;28;20084;-76
2024/02/10 02:49:08;;;;;;;6.80;3.83;;;;;;;11.12;79.94;96422.38;4985979;28;20030;-77
2024/02/10 02:51:35;;;;;;;9.73;3.83;;;;;;;11.14;82.32;96413.22;4995038;28;20030;-77
2024/02/10 02:54:01;;;;;;;9.70;4.00;;;;;;;11.15;80.41;96414.09;4984150;28;20473;-77
2024/02/10 02:56:27;;;;;;;12.38;4.40;;;;;;;11.15;80.91;96427.47;4997352;28;20022;-76
2024/02/10 02:58:54;;;;;;;10.82;4.00;;;;;;;11.15;79.58;96433.69;4985828;28;20129;-76
2024/02/10 03:01:22;;;;;;;8.27;3.63;;;;;;;11.32;76.46;96433.13;4996096;28;20022;-76
2024/02/10 03:03:50;;;;;;;9.70;4.00;;;;;;;11.34;76.39;96427.66;4985516;28;20029;-76
2024/02/10 03:06:19;;;;;;;9.27;3.55;;;;;;;11.34;76.30;96441.91;5004611;28;20403;-77
2024/02/10 03:08:47;;;;;;;9.25;4.22;;;;;;;11.28;77.73;96458.47;4982546;28;20030;-75
2024/02/10 03:11:19;;;;;;;9.20;4.43;;;;;;;11.19;78.59;96445.84;4977160;28;20030;-76
2024/02/10 03:13:48;;;;;;;7.97;3.67;;;;;;;11.23;75.09;96420.50;4989793;28;20071;-76
2024/02/10 03:16:17;;;;;;;13.23;4.40;;;;;;;11.36;76.85;96447.09;5004504;28;20109;-76
2024/02/10 03:18:45;;;;;;;10.25;4.35;;;;;;;11.22;76.71;96442.91;4985240;28;20129;-76
2024/02/10 03:21:17;;;;;;;9.20;4.38;;;;;;;11.09;79.96;96450.22;5009367;28;20025;-78
2024/02/10 03:23:46;;;;;;;9.57;4.35;;;;;;;11.04;80.10;96441.75;4980645;28;20116;-76
2024/02/10 03:26:12;;;;;;;10.85;4.63;;;;;;;10.94;80.47;96443.47;4999747;28;20033;-76
2024/02/10 03:28:38;;;;;;;12.38;5.32;;;;;;;11.01;81.50;96457.19;4977099;28;20037;-76
2024/02/10 03:31:04;;;;;;;12.65;3.45;;;;;;;10.89;79.80;96445.63;5003871;28;20029;-76
2024/02/10 03:33:32;;;;;;;9.15;3.83;;;;;;;11.06;78.47;96457.66;4976868;28;20064;-76
2024/02/10 03:35:58;;;;;;;11.63;4.50;;;;;;;11.16;76.48;96459.47;4985373;28;20040;-76
2024/02/10 03:38:24;;;;;;;9.77;4.57;;;;;;;11.08;77.46;96451.19;4996320;28;20041;-77
2024/02/10 03:40:50;;;;;;;8.73;3.75;;;;;;;11.00;77.79;96423.38;4992282;28;20427;-76
2024/02/10 03:43:17;;;;;;;7.55;3.72;;;;;;;11.05;76.57;96423.84;4986966;28;20029;-76
2024/02/10 03:45:43;;;;;;;7.25;3.40;;;;;;;11.13;75.22;96435.63;4985038;28;20026;-76
2024/02/10 03:48:09;;;;;;;11.90;3.70;;;;;;;11.06;76.11;96434.44;4984903;28;20025;-76
2024/02/10 03:50:35;;;;;;;9.05;4.30;;;;;;;11.01;79.14;96452.69;4988648;28;20040;-76
2024/02/10 03:53:00;;;;;;;7.68;3.47;;;;;;;11.05;78.15;96448.78;4984641;28;20520;-76
2024/02/10 03:55:27;;;;;;;7.32;3.50;;;;;;;11.05;75.89;96461.28;5014382;28;20117;-77
2024/02/10 03:57:53;;;;;;;6.65;3.38;;;;;;;11.00;74.07;96450.97;4988973;28;20060;-77
2024/02/10 04:00:28;;;;;;;7.38;3.60;;;;;;;11.18;73.50;96465.53;5010116;28;20026;-77
2024/02/10 04:02:55;;;;;;;8.38;3.75;;;;;;;11.26;71.78;96467.56;4940142;28;1362284;-76
2024/02/10 04:05:21;;;;;;;7.90;3.65;;;;;;;11.24;73.31;96464.19;5001357;28;20073;-76
2024/02/10 04:07:52;;;;;;;11.18;3.83;;;;;;;11.33;72.03;96482.16;4987182;28;20032;-77
2024/02/10 04:10:19;;;;;;;7.13;3.92;;;;;;;11.42;71.78;96451.97;4990392;28;20021;-77
2024/02/10 04:12:46;;;;;;;8.52;3.10;;;;;;;11.28;70.57;96450.44;5001685;28;20037;-77
2024/02/10 04:15:12;;;;;;;10.88;3.55;;;;;;;11.44;69.55;96458.06;4979900;28;20482;-76
2024/02/10 04:17:55;;;;;;;12.52;3.60;;;;;;;11.34;71.10;96452.59;4992178;28;20412;-77
2024/02/10 04:20:23;;;;;;;8.68;3.72;;;;;;;11.35;71.19;96451.59;4993240;28;20029;-76
2024/02/10 04:22:49;;;;;;;5.53;2.70;;;;;;;11.31;69.24;96439.47;4988339;28;20116;-75
2024/02/10 04:25:15;;;;;;;7.07;3.30;;;;;;;11.29;71.39;96445.91;5007048;28;20032;-75
2024/02/10 04:27:41;;;;;;;7.47;3.90;;;;;;;11.28;71.65;96439.72;4988266;28;20037;-77
2024/02/10 04:30:10;;;;;;;8.18;3.90;;;;;;;11.25;71.80;96439.13;4995699;28;20030;-77
2024/02/10 04:32:42;;;;;;;10.07;3.97;;;;;;;11.26;73.07;96438.13;4991886;28;20036;-76
2024/02/10 04:35:09;;;;;;;9.20;4.85;;;;;;;11.15;74.65;96438.16;5009009;28;20026;-76
2024/02/10 04:37:35;;;;;;;7.38;3.40;;;;;;;11.15;72.51;96425.66;4993960;28;20053;-77
2024/02/10 04:40:02;;;;;;;7.65;3.80;;;;;;;11.22;72.74;96418.81;5015104;28;20041;-77
2024/02/10 04:42:28;;;;;;;8.15;3.97;;;;;;;11.30;74.29;96400.28;5011750;28;20560;-77
2024/02/10 04:44:54;;;;;;;9.52;4.32;;;;;;;11.26;74.81;96412.22;4995722;28;20017;-77
2024/02/10 04:47:19;;;;;;;9.35;4.53;;;;;;;11.30;75.36;96402.97;5000273;28;20510;-76
2024/02/10 04:49:45;;;;;;;8.60;4.55;;;;;;;11.30;75.74;96402.97;4983600;28;20030;-77
2024/02/10 04:52:11;;;;;;;13.65;5.70;;;;;;;11.26;74.20;96393.47;4989723;28;20171;-77
2024/02/10 04:54:36;;;;;;;12.98;6.80;;;;;;;11.23;74.21;96383.03;4998939;28;20451;-76
2024/02/10 04:57:03;;;;;;;14.25;5.82;;;;;;;11.28;74.17;96394.22;5000036;28;20038;-76
2024/02/10 04:59:29;;;;;;;21.83;9.30;;;;;;;11.34;73.39;96400.88;5016439;28;20086;-77
2024/02/10 05:01:56;;;;;;;13.02;6.38;;;;;;;11.36;73.55;96383.72;4984878;28;20148;-76
2024/02/10 05:04:22;;;;;;;14.25;6.43;;;;;;;11.46;71.46;96393.66;4988431;28;20026;-76
2024/02/10 05:06:48;;;;;;;14.52;5.82;;;;;;;11.50;70.21;96403.13;4994098;28;20029;-76
2024/02/10 05:09:14;;;;;;;13.80;5.93;;;;;;;11.62;70.33;96404.78;4998406;28;20394;-77
2024/02/10 05:11:43;;;;;;;9.50;4.38;;;;;;;11.69;67.23;96390.72;4987718;28;20462;-76
2024/02/10 05:14:12;;;;;;;18.67;8.25;;;;;;;11.87;67.32;96389.19;5006733;28;20025;-77
2024/02/10 05:16:38;;;;;;;27.92;10.77;;;;;;;11.88;68.69;96396.25;4987959;28;20492;-77
2024/02/10 05:19:03;;;;;;;14.50;5.43;;;;;;;11.86;68.16;96400.91;4991906;28;20168;-75
2024/02/10 05:21:32;;;;;;;10.43;5.10;;;;;;;11.87;69.19;96421.34;5000037;28;20064;-77
2024/02/10 05:24:05;;;;;;;16.70;6.50;;;;;;;11.84;70.34;96426.13;5008708;28;20509;-76
2024/02/10 05:26:34;;;;;;;15.48;5.88;;;;;;;11.68;71.60;96423.00;4984743;28;20029;-76
2024/02/10 05:29:06;;;;;;;13.85;4.72;;;;;;;11.54;74.50;96423.28;4998417;28;20045;-76
2024/02/10 05:31:36;;;;;;;14.27;4.93;;;;;;;11.50;76.72;96432.59;5007093;28;20029;-77
2024/02/10 05:34:05;;;;;;;10.80;4.78;;;;;;;11.36;80.54;96441.75;4982697;28;20046;-78
2024/02/10 05:36:36;;;;;;;13.43;5.45;;;;;;;11.17;81.44;96445.09;5010746;28;20029;-76
2024/02/10 05:39:06;;;;;;;24.73;12.07;;;;;;;11.08;82.96;96451.19;4989202;28;20029;-76
2024/02/10 05:41:32;;;;;;;30.92;14.57;;;;;;;11.05;83.52;96461.28;4995928;28;20333;-77
2024/02/10 05:43:58;;;;;;;15.80;7.82;;;;;;;11.04;81.66;96460.47;4980460;28;20032;-77
2024/02/10 05:46:24;;;;;;;15.48;7.45;;;;;;;11.06;80.93;96463.88;4992502;28;20026;-78
2024/02/10 05:48:50;;;;;;;14.02;6.82;;;;;;;11.06;81.15;96466.53;4998058;28;20144;-77
2024/02/10 05:51:17;;;;;;;35.15;13.32;;;;;;;11.08;81.90;96474.44;4991021;28;20056;-77
2024/02/10 05:53:45;;;;;;;46.65;16.27;;;;;;;11.02;84.81;96481.13;4989421;28;20449;-77
2024/02/10 05:56:15;;;;;;;28.90;10.95;;;;;;;11.01;85.90;96486.63;4988155;28;20033;-77
2024/02/10 05:58:43;;;;;;;18.52;8.82;;;;;;;11.01;87.02;96503.53;4992917;28;20033;-76
2024/02/10 06:01:13;;;;;;;11.30;5.78;;;;;;;10.93;85.96;96491.72;4990485;28;20041;-77
2024/02/10 06:03:42;;;;;;;15.23;6.82;;;;;;;10.87;86.87;96506.44;4992672;28;20488;-76
2024/02/10 06:06:08;;;;;;;18.23;8.80;;;;;;;10.97;86.31;96526.16;5017898;28;20477;-76
2024/02/10 06:08:35;;;;;;;21.80;9.88;;;;;;;10.96;87.30;96524.44;4999349;28;20040;-77
2024/02/10 06:11:02;;;;;;;19.33;10.18;;;;;;;10.97;85.97;96520.78;4992407;28;20029;-77
2024/02/10 06:13:29;;;;;;;26.33;11.60;;;;;;;11.17;85.11;96520.03;4998003;28;20022;-77
2024/02/10 06:15:55;;;;;;;47.50;16.58;;;;;;;11.31;83.93;96519.78;4993342;28;20038;-77
2024/02/10 06:18:27;;;;;;;38.85;16.30;;;;;;;11.40;83.65;96524.38;4987258;28;20037;-77
2024/02/10 06:20:53;;;;;;;32.40;14.23;;;;;;;11.47;79.90;96523.88;5003925;28;20103;-75
2024/02/10 06:23:35;;;;;;;;;;;;;;;;;;;;;
2024/02/10 06:26:01;;;;;;;121.85;39.22;;;;;;;11.70;79.25;96533.56;5016001;28;20026;-75
2024/02/10 06:28:27;;;;;;;125.45;31.38;;;;;;;11.80;81.02;96530.03;4995901;28;20112;-76
2024/02/10 06:30:55;;;;;;;78.75;27.95;;;;;;;11.92;79.80;96514.75;4986641;28;20030;-77
2024/02/10 06:33:23;;;;;;;31.23;12.15;;;;;;;11.97;77.29;96519.72;5011411;28;20095;-74
2024/02/10 06:35:53;;;;;;;38.47;10.98;;;;;;;12.11;74.74;96498.81;4998004;28;20040;-75
2024/02/10 06:38:19;;;;;;;31.38;11.10;;;;;;;12.28;75.77;96514.31;5031736;28;20028;-74
2024/02/10 06:40:44;;;;;;;27.00;10.10;;;;;;;12.13;75.99;96496.84;4997697;28;20021;-75
2024/02/10 06:43:12;;;;;;;34.05;13.07;;;;;;;12.41;75.12;96519.47;5014183;28;20060;-76
2024/02/10 06:45:41;;;;;;;66.82;36.03;;;;;;;12.61;77.57;96528.50;5000752;28;20415;-76
2024/02/10 06:48:11;;;;;;;112.88;56.60;;;;;;;12.68;76.99;96517.09;4991690;28;20030;-76
2024/02/10 06:50:38;;;;;;;93.32;39.45;;;;;;;13.31;67.92;96513.31;4991898;28;20087;-77
2024/02/10 06:53:04;;;;;;;37.35;15.13;;;;;;;14.12;62.11;96506.72;4993862;28;20099;-75
2024/02/10 06:55:33;;;;;;;28.83;10.32;;;;;;;15.01;57.72;96505.47;4987136;28;20033;-78
2024/02/10 06:58:02;;;;;;;56.00;25.90;;;;;;;15.75;56.77;96498.09;4996246;28;20033;-78
2024/02/10 07:00:28;;;;;;;61.80;15.98;;;;;;;16.33;54.33;96490.44;4983066;28;20057;-78
2024/02/10 07:02:56;;;;;;;58.45;14.05;;;;;;;17.04;51.29;96480.28;4980060;28;20058;-79
2024/02/10 07:05:24;;;;;;;56.95;17.08;;;;;;;17.55;50.05;96503.69;4985261;28;20068;-78
2024/02/10 07:07:50;;;;;;;56.90;17.83;;;;;;;18.77;47.19;96475.75;4982799;28;20041;-78
2024/02/10 07:10:21;;;;;;;75.57;13.88;;;;;;;17.53;48.55;96478.66;4989173;28;20115;-79
2024/02/10 07:12:48;;;;;;;84.25;19.13;;;;;;;16.46;50.85;96471.09;4989283;28;20029;-78
2024/02/10 07:15:18;;;;;;;55.55;18.42;;;;;;;16.26;51.11;96475.84;4990591;28;20068;-79
2024/02/10 07:17:46;;;;;;;48.28;14.05;;;;;;;15.71;51.16;96469.78;4986758;28;20187;-80
2024/02/10 07:20:22;;;;;;;51.60;15.45;;;;;;;15.56;53.50;96472.16;4983318;28;20095;-78
2024/02/10 07:22:50;;;;;;;64.07;25.17;;;;;;;16.45;53.55;96491.88;4990138;28;20044;-78
2024/02/10 07:25:19;;;;;;;30.02;10.02;;;;;;;17.79;50.13;96486.69;4993726;28;20056;-77
2024/02/10 07:27:50;;;;;;;41.67;11.07;;;;;;;18.95;46.75;96451.16;4986920;28;20029;-78
2024/02/10 07:30:20;;;;;;;19.55;7.05;;;;;;;20.35;43.32;96428.41;4986293;28;20486;-76
2024/02/10 07:32:47;;;;;;;16.60;5.25;;;;;;;21.48;39.76;96423.63;5009556;28;20550;-79
2024/02/10 07:35:13;;;;;;;24.52;7.70;;;;;;;22.05;39.42;96413.69;5013492;28;20033;-78
2024/02/10 07:37:40;;;;;;;14.65;5.68;;;;;;;22.57;38.65;96415.19;4985809;28;20116;-78
2024/02/10 07:40:10;;;;;;;11.25;3.35;;;;;;;22.88;36.22;96410.22;4996008;28;20033;-79
2024/02/10 07:42:37;;;;;;;9.80;3.42;;;;;;;23.70;35.06;96392.00;4988438;28;20489;-84
2024/02/10 07:45:03;;;;;;;20.13;5.25;;;;;;;24.29;34.77;96380.41;4997849;28;20033;-76
2024/02/10 07:47:29;;;;;;;10.90;3.95;;;;;;;25.22;32.88;96377.41;4990313;28;20065;-76
2024/02/10 07:49:58;;;;;;;13.82;7.65;;;;;;;25.63;32.29;96373.47;4990530;28;20076;-77
2024/02/10 07:52:26;;;;;;;13.52;4.25;;;;;;;25.77;31.83;96388.81;4990602;28;20413;-75
2024/02/10 07:54:52;;;;;;;16.63;5.13;;;;;;;24.95;32.17;96381.22;4998036;28;20025;-75
2024/02/10 07:57:21;;;;;;;15.93;6.72;;;;;;;24.85;31.51;96397.25;5024531;28;20025;-75
2024/02/10 07:59:50;;;;;;;9.23;2.97;;;;;;;25.28;31.03;96398.44;5010035;28;20081;-75
2024/02/10 08:02:23;;;;;;;17.40;6.13;;;;;;;25.28;31.74;96384.75;4993644;28;20083;-75
2024/02/10 08:04:51;;;;;;;12.40;6.07;;;;;;;25.11;31.59;96385.41;4993656;28;20021;-76
2024/02/10 08:07:21;;;;;;;16.55;8.15;;;;;;;25.33;29.66;96378.63;4993546;28;20040;-75
2024/02/10 08:09:47;;;;;;;24.65;8.75;;;;;;;25.34;30.35;96375.69;5010088;28;20025;-76
2024/02/10 08:12:23;;;;;;;5.95;3.30;;;;;;;25.22;29.11;96349.19;5009745;28;20561;-76
2024/02/10 08:14:52;;;;;;;6.13;2.67;;;;;;;25.23;28.87;96338.00;5009386;28;20041;-76
2024/02/10 08:17:24;;;;;;;10.93;4.45;;;;;;;24.51;29.66;96346.34;4986725;28;20397;-75
2024/02/10 08:19:56;;;;;;;7.38;2.92;;;;;;;24.97;30.71;96346.31;4984035;28;20057;-77
2024/02/10 08:22:22;;;;;;;8.88;4.90;;;;;;;24.74;29.03;96333.03;4990852;28;20555;-75
2024/02/10 08:24:51;;;;;;;29.92;14.32;;;;;;;25.20;28.46;96346.66;4973836;28;20067;-75
2024/02/10 08:27:18;;;;;;;7.90;2.90;;;;;;;24.67;30.16;96356.81;4984521;28;20033;-77
2024/02/10 08:29:45;;;;;;;5.78;3.13;;;;;;;23.14;30.75;96368.59;5017305;28;20536;-75
2024/02/10 08:32:13;;;;;;;8.20;3.55;;;;;;;22.50;31.60;96376.13;4992756;28;20471;-75
2024/02/10 08:34:44;;;;;;;9.73;5.10;;;;;;;21.96;31.10;96368.53;4993308;28;20040;-75
2024/02/10 08:37:12;;;;;;;10.63;4.35;;;;;;;21.39;31.51;96376.66;4999545;28;21016;-76
2024/02/10 08:39:38;;;;;;;9.70;2.60;;;;;;;21.05;33.74;96374.50;5003787;28;20563;-75
2024/02/10 08:42:09;;;;;;;8.45;3.00;;;;;;;20.58;32.77;96376.72;4975471;28;20044;-76
2024/02/10 08:44:35;;;;;;;7.70;3.08;;;;;;;20.60;34.32;96385.56;4990300;28;20034;-76
2024/02/10 08:47:03;;;;;;;6.18;2.78;;;;;;;20.76;33.57;96379.97;4991101;28;20034;-75
2024/02/10 08:49:35;;;;;;;8.00;3.78;;;;;;;20.65;33.05;96369.53;5009805;28;20040;-75
2024/02/10 08:52:05;;;;;;;17.23;5.10;;;;;;;20.63;34.32;96378.91;5009574;28;20421;-75
2024/02/10 08:54:31;;;;;;;15.45;5.57;;;;;;;20.35;34.57;96367.81;5009185;28;20033;-74
2024/02/10 08:57:02;;;;;;;15.82;6.80;;;;;;;20.18;34.45;96368.97;5003529;28;20029;-74
2024/02/10 08:59:31;;;;;;;19.27;7.57;;;;;;;20.26;36.10;96387.91;4990153;28;20034;-75
2024/02/10 09:02:01;;;;;;;19.75;6.55;;;;;;;20.17;35.60;96388.97;4989994;28;20057;-75
2024/02/10 09:04:30;;;;;;;22.65;7.03;;;;;;;20.07;35.71;96394.66;4977323;28;20406;-74
2024/02/10 09:06:56;;;;;;;22.55;10.60;;;;;;;20.06;35.03;96386.72;4973519;28;20030;-75
2024/02/10 09:09:21;;;;;;;51.92;27.88;;;;;;;19.76;33.64;96383.00;4989742;28;20038;-78
2024/02/10 09:11:47;;;;;;;7.05;2.40;;;;;;;19.45;34.15;96377.63;4989226;28;20037;-75
2024/02/10 09:14:13;;;;;;;7.32;3.92;;;;;;;19.02;34.51;96375.41;5018350;28;20113;-76
2024/02/10 09:16:39;;;;;;;4.93;2.20;;;;;;;18.65;34.42;96373.34;5009091;28;20489;-76
2024/02/10 09:19:05;;;;;;;9.30;3.30;;;;;;;18.60;34.86;96382.00;5009128;28;20025;-78
2024/02/10 09:21:30;;;;;;;51.10;16.02;;;;;;;18.64;33.83;96371.69;5010353;28;20338;-75
2024/02/10 09:23:58;;;;;;;4.30;1.70;;;;;;;18.73;34.09;96381.47;4986297;28;20030;-76
2024/02/10 09:26:27;;;;;;;12.57;3.30;;;;;;;18.81;34.36;96382.28;4996910;28;20107;-75
2024/02/10 09:28:55;;;;;;;6.18;3.88;;;;;;;18.86;33.58;96376.31;5006419;28;20113;-76
2024/02/10 09:31:23;;;;;;;10.35;2.67;;;;;;;18.81;33.56;96371.44;5006048;28;20486;-76
2024/02/10 09:33:48;;;;;;;3.58;2.10;;;;;;;18.81;33.23;96352.47;5008747;28;20656;-74
2024/02/10 09:36:14;;;;;;;12.57;2.45;;;;;;;18.86;33.60;96355.50;4995842;28;20033;-75
2024/02/10 09:38:40;;;;;;;5.10;2.30;;;;;;;18.82;33.76;96353.34;5030151;28;20133;-75
2024/02/10 09:41:08;;;;;;;4.13;2.38;;;;;;;18.76;33.54;96363.00;4980209;28;20041;-76
2024/02/10 09:43:38;;;;;;;23.98;5.63;;;;;;;18.65;33.86;96370.63;4987725;28;20033;-74
2024/02/10 09:46:10;;;;;;;4.43;2.20;;;;;;;18.65;33.54;96368.78;5012552;28;20029;-74
2024/02/10 09:48:40;;;;;;;;;;;;;;;18.84;33.50;96381.09;5013022;28;20397;-74
2024/02/10 09:51:06;;;;;;;14.63;4.15;;;;;;;18.84;33.60;96379.22;5029207;28;19996;-74
2024/02/10 09:53:32;;;;;;;7.43;3.97;;;;;;;19.04;33.46;96376.13;4995865;28;20473;-75
2024/02/10 09:55:58;;;;;;;6.55;1.85;;;;;;;19.16;33.45;96382.84;5012395;28;20108;-76
2024/02/10 09:58:25;;;;;;;12.63;6.25;;;;;;;19.08;33.31;96385.56;4995575;28;20037;-75
2024/02/10 10:00:52;;;;;;;9.48;4.18;;;;;;;18.80;33.64;96394.13;5012041;28;20516;-75
2024/02/10 10:03:18;;;;;;;11.50;5.70;;;;;;;18.83;34.20;96404.63;5012085;28;20061;-75
2024/02/10 10:05:45;;;;;;;30.35;4.22;;;;;;;18.94;34.22;96396.13;5028581;28;20477;-76
2024/02/10 10:08:14;;;;;;;7.35;3.33;;;;;;;18.98;33.60;96388.47;4992599;28;20431;-75
2024/02/10 10:10:40;;;;;;;6.93;3.30;;;;;;;19.02;33.54;96391.69;4993172;28;20500;-74
2024/02/10 10:13:08;;;;;;;15.00;4.70;;;;;;;18.87;34.13;96400.56;5004353;28;20112;-76
2024/02/10 10:15:36;;;;;;;6.70;2.60;;;;;;;18.79;34.51;96414.13;5010131;28;20028;-75
2024/02/10 10:18:03;;;;;;;10.60;3.80;;;;;;;18.90;33.57;96389.38;4992006;28;20021;-76
2024/02/10 10:20:32;;;;;;;8.43;3.38;;;;;;;18.87;33.88;96389.72;4994134;28;20068;-74
2024/02/10 10:22:58;;;;;;;12.55;2.08;;;;;;;18.85;33.26;96378.22;5011357;28;20057;-75
2024/02/10 10:25:27;;;;;;;4.32;2.53;;;;;;;18.81;33.49;96379.56;5005809;28;20053;-76
2024/02/10 10:27:53;;;;;;;7.30;2.53;;;;;;;18.86;33.74;96365.47;4975809;28;20490;-75
2024/02/10 10:30:22;;;;;;;11.02;3.00;;;;;;;18.85;33.71;96370.09;4992206;28;20508;-73
2024/02/10 10:32:52;;;;;;;11.85;5.25;;;;;;;18.82;33.92;96367.72;4975392;28;20029;-75
2024/02/10 10:35:19;;;;;;;26.83;15.32;;;;;;;18.83;33.62;96369.41;4992348;28;20028;-76
2024/02/10 10:37:48;;;;;;;6.88;3.78;;;;;;;18.91;34.01;96355.84;4989458;28;20537;-82
2024/02/10 10:40:13;;;;;;;7.13;3.55;;;;;;;19.02;33.71;96364.56;4988052;28;20033;-79
2024/02/10 10:42:42;;;;;;;8.05;3.10;;;;;;;19.08;33.83;96375.56;5010629;28;20025;-81
2024/02/10 10:45:08;;;;;;;9.55;4.00;;;;;;;19.02;34.46;96359.16;4992157;28;20022;-73
2024/02/10 10:47:39;;;;;;;7.25;3.10;;;;;;;19.18;34.13;96356.38;4990981;28;20571;-73
2024/02/10 10:50:05;;;;;;;8.48;2.53;;;;;;;19.08;33.71;96342.19;4992219;28;20425;-73
2024/02/10 10:52:32;;;;;;;6.72;2.92;;;;;;;19.19;34.04;96348.09;4975294;28;20062;-72
2024/02/10 10:54:58;;;;;;;10.05;3.17;;;;;;;19.02;33.74;96348.31;4975600;28;20144;-72
2024/02/10 10:57:24;;;;;;;5.38;2.08;;;;;;;18.93;33.81;96321.25;5010622;28;20103;-71
2024/02/10 11:00:11;;;;;;;9.77;3.45;;;;;;;19.02;33.71;96329.34;4994667;28;20029;-73
2024/02/10 11:02:37;;;;;;;10.00;3.25;;;;;;;19.03;33.93;96322.91;4995125;28;20052;-73
2024/02/10 11:05:08;;;;;;;7.32;3.78;;;;;;;19.23;34.10;96346.69;5011719;28;20029;-75
2024/02/10 11:07:36;;;;;;;14.20;4.75;;;;;;;19.37;34.23;96326.09;5010770;28;20112;-73
2024/02/10 11:10:03;;;;;;;9.35;3.33;;;;;;;19.56;33.88;96335.69;5010997;28;20029;-73
2024/02/10 11:12:34;;;;;;;7.93;3.03;;;;;;;19.73;33.46;96354.38;5010820;28;20090;-73
2024/02/10 11:15:00;;;;;;;6.85;3.17;;;;;;;19.71;33.89;96355.59;5011566;28;20034;-74
2024/02/10 11:17:29;;;;;;;10.82;2.25;;;;;;;19.45;34.15;96358.63;5010714;28;20029;-73
2024/02/10 11:20:06;;;;;;;8.75;2.78;;;;;;;19.32;34.12;96350.19;5001824;28;20029;-72
2024/02/10 11:22:35;;;;;;;8.38;2.97;;;;;;;19.22;34.52;96360.44;4992949;28;20028;-73
2024/02/10 11:25:02;;;;;;;4.13;2.47;;;;;;;19.18;34.43;96350.97;5019590;28;20580;-72
2024/02/10 11:27:31;;;;;;;5.97;3.40;;;;;;;19.25;34.20;96351.94;4998420;28;20034;-75
2024/02/10 11:29:59;;;;;;;8.55;2.25;;;;;;;19.18;34.20;96370.78;5007645;28;20031;-75
2024/02/10 11:32:28;;;;;;;6.65;2.08;;;;;;;19.14;34.29;96346.91;5001301;28;20036;-74